Aérodrome :
LOGIN :

S'inscrire | Disclaimer

   EN    FR    IT 

 










Légende :    VFR   VFR Marginal   IFR   IFR Intensif   IFR Très Intensif
Visi : 
Plafond : 
>= 8 km
>= 3000ft
5 à 8 km
1000 à 3000 ft
1500m à 5 km
500 à 1000 ft
800 à 1500m
200 à 500 ft
< 800m
< 200 ft
Symboles :   Orages  Brouillard  Fortes neiges  Fortes précipitations  Vent > 20 kt
SIGMETs :   Divers  Orages  Givrage  Turbulence  Onde Orograph.  Cendres Volcan.






- Altitude de l'aérodrome : 74 ft
- Code IATA : EIN


EHEH - Eindhoven

DERNIER METAR :
  • 240055Z AUTO VRB02KT 1100 BR OVC001 01/01 Q1026 RED

METARs EXPIRÉS :
  • 240025Z AUTO VRB02KT 1400 BR OVC001 02/01 Q1026 RED
  • 240002Z AUTO 14003KT 060V200 1400 BR OVC001 02/01 Q1026 RED
  • 232355Z AUTO 16004KT 030V200 1300 BR OVC002 02/01 Q1026 AMB
  • 232340Z AUTO 14003KT 110V190 1500 BR OVC002 02/02 Q1026 AMB
  • 232325Z AUTO 13003KT 080V180 1900 BR OVC002 02/01 Q1026 AMB
  • 232309Z AUTO 15005KT 130V190 2100 BR OVC002 02/01 Q1026 AMB
  • 232255Z AUTO 15006KT 100V180 2100 BR OVC003 02/01 Q1026 YLO
  • 232245Z AUTO 15006KT 090V180 2200 BR OVC003 02/01 Q1026 YLO
  • 232225Z AUTO 14004KT 070V140 2400 R03/2300N BR OVC003 02/01 Q1027 YLO 11004KT 3000 BR OVC003 BECMG 2500 0VC002

TAF TAF EHEH
Valide du 24 à 00h jusqu'au 25 à 06h UTC


232112Z 2400/2506 VRB03KT 2500 BR BKN003
TEMPO 2400/2410 1200 SCT001 BKN002
PROB30
TEMPO 2403/2408 0500 FG FZFG VV001
BECMG 2408/2410 4000 BR BKN005
BECMG 2410/2413 9999 NSW FEW008 BKN015
BECMG 2417/2419 4500 BR
PROB40 2419/2506 0800 FG FZFG



MET'MAP, la Météo Aéronautique d'un coup d'oeil ! - Copyright ORBIFLY Décembre 2007 - Disclaimer

ORBIFLY MET'MAP TEAM :

Programmation & Développement : Alexandra Zaïnal
Sur une idée originale de : Baudouin d'Aumeries
Assistance à la programmation : Marc-Olivier Méhu
Soutien technique & logistique : Manuel Goepfert

Contact : metmap@orbifly.com




SOURCES & CREDITS :

   NOAA